• Join FlightAware (Why Join?)
  • Login
  • US Flag 
02:52PM EST


 

Airport Tracker/Info


-or-


 

Live Flight TrackerFlight Track Log ✈ SWA303 ✈ 09-May-2013 ✈ KDEN - KIAD

Flight Track Log - Related Links

Times and Time Zones

All times are in EDT time to prevent confusion due to time zone crossing. See the SWA303 flight status page for this flight to view local times or setup timezone preferences in your user account.

Time Position Orientation Groundspeed Altitude Reporting Facility
EDT Latitude Longitude Course Direction KTS MPH feet Rate Location/Type
02:30PM 39.8778 -104.5969 81° East 185 213 6,700  Level Denver Center
02:31PM 39.8861 -104.5244 81° East 204 235 8,700 1,560 Climbing Denver Center
02:32PM 39.8958 -104.4311 82° East 257 296 10,000 1,920 Climbing Denver Center
02:33PM 39.8967 -104.3031 89° East 327 376 12,700 2,580 Climbing Denver Center
02:34PM 39.8997 -104.1817 88° East 337 388 15,900 2,580 Climbing Denver Center
02:35PM 39.8944 -104.0153 92° East 367 422 18,600 2,460 Climbing Denver Center
02:36PM 39.8883 -103.8656 93° East 392 451 21,100 2,100 Climbing Denver Center
02:37PM 39.8850 -103.7133 92° East 409 471 23,000 1,980 Climbing Denver Center
02:38PM 39.9019 -103.5703 81° East 421 484 25,200 1,860 Climbing Denver Center
02:39PM 39.9169 -103.4386 82° East 424 488 26,900 1,980 Climbing Denver Center
02:40PM 39.9386 -103.2414 82° East 431 496 29,300 1,920 Climbing Denver Center
02:41PM 39.9556 -103.0919 82° East 435 501 30,900 1,740 Climbing Denver Center
02:42PM 39.9747 -102.9178 82° East 436 502 32,900 1,860 Climbing Denver Center
02:43PM 39.9900 -102.7728 82° East 426 490 34,800 960 Climbing Denver Center
02:44PM 40.0078 -102.6042 82° East 421 484 35,000 480 Climbing Denver Center
02:46PM 40.0236 -102.4586 82° East 423 487 35,800 840 Climbing Denver Center
02:47PM 40.0431 -102.2836 82° East 437 503 36,800 540 Climbing Denver Center
02:48PM 40.0567 -102.1311 83° East 443 510 37,000 60 Climbing Denver Center
02:49PM 40.0731 -101.9778 82° East 445 512 37,000  Level Denver Center
02:50PM 40.0911 -101.7978 82° East 447 514 37,000  Level Denver Center
02:51PM 40.1067 -101.6431 82° East 449 517 37,000  Level Denver Center
02:52PM 40.1239 -101.4606 83° East 453 521 37,000  Level Denver Center
02:53PM 40.1386 -101.3044 83° East 454 522 37,000  Level Denver Center
02:54PM 40.1553 -101.1239 83° East 451 519 37,000  Level Denver Center
02:55PM 40.1692 -100.9725 83° East 442 509 37,000  Level Denver Center
02:56PM 40.1853 -100.7958 83° East 441 507 37,000  Level Denver Center
02:57PM 40.1989 -100.6439 83° East 440 506 37,000  Level Denver Center
02:58PM 40.2056 -100.4681 87° East 437 503 37,000  Level Denver Center
02:59PM 40.2083 -100.3142 89° East 441 507 37,000  Level Denver Center
03:00PM 40.2111 -100.1350 89° East 444 511 37,000  Level Denver Center
03:01PM 40.2133 -99.9831 89° East 440 506 37,000  Level Denver Center
03:02PM 40.2147 -99.8236 89° East 442 509 37,000 180 Level Denver Center
03:03PM 40.2172 -99.6294 89° East 445 512 37,500 600 Climbing Denver Center
03:05PM 40.2192 -99.4031 89° East 448 516 38,400 660 Climbing Denver Center
03:06PM 40.2200 -99.2383 90° East 453 521 38,900 240 Climbing Denver Center
03:07PM 40.2208 -99.0708 90° East 462 532 39,000  Climbing Denver Center
03:08PM 40.2219 -98.9031 89° East 462 532 39,000  Level Denver Center
03:09PM 40.2228 -98.7017 90° East 465 535 39,000  Level Minneapolis Center
03:10PM 40.2228 -98.5350 90° East 463 533 39,000  Level Minneapolis Center
03:11PM 40.2214 -98.3672 91° East 462 532 39,000  Level Minneapolis Center
03:12PM 40.2219 -98.2008 90° East 461 531 39,000  Level Minneapolis Center
03:13PM 40.2214 -98.0347 90° East 459 528 39,000  Level Minneapolis Center
03:14PM 40.2206 -97.8686 90° East 459 528 39,000  Level Minneapolis Center
03:15PM 40.2192 -97.6692 90° East 458 527 39,000  Level Minneapolis Center
03:16PM 40.2183 -97.5019 90° East 460 529 39,000  Level Minneapolis Center
03:17PM 40.2164 -97.3233 91° East 461 531 39,000  Level Minneapolis Center
03:18PM 40.2153 -97.1589 90° East 456 525 39,000  Level Minneapolis Center
03:19PM 40.2147 -96.9972 90° East 449 517 39,000  Level Minneapolis Center
03:20PM 40.2167 -96.8356 89° East 448 516 39,000  Level Minneapolis Center
03:21PM 40.2181 -96.6753 89° East 445 512 39,000  Level Minneapolis Center
03:22PM 40.2183 -96.5139 90° East 445 512 39,000  Level Minneapolis Center
03:23PM 40.2189 -96.3222 90° East 443 510 39,000  Level Minneapolis Center
03:24PM 40.2203 -96.1619 89° East 442 509 39,000  Level Minneapolis Center
03:25PM 40.2194 -96.0017 90° East 443 510 39,000  Level Minneapolis Center
03:26PM 40.2192 -95.8403 90° East 446 513 39,000  Level Minneapolis Center
03:27PM 40.2194 -95.6817 90° East 441 507 39,000  Level Minneapolis Center
03:28PM 40.2192 -95.5225 90° East 439 505 39,000  Level Minneapolis Center
03:29PM 40.2178 -95.3322 90° East 439 505 39,000  Level Minneapolis Center
03:30PM 40.2167 -95.1728 90° East 439 505 39,000  Level Minneapolis Center
03:31PM 40.2156 -95.0139 90° East 439 505 39,000  Level Minneapolis Center
03:32PM 40.2147 -94.8550 90° East 439 505 39,000  Level Minneapolis Center
03:33PM 40.2128 -94.6975 91° East 436 502 39,000  Level Minneapolis Center
03:34PM 40.2103 -94.5183 91° East 435 501 39,000  Level Minneapolis Center
03:36PM 40.2069 -94.3361 91° East 430 495 39,000  Level Kansas City Center
03:37PM 40.2042 -94.1833 91° East 434 499 39,000  Level Kansas City Center
03:38PM 40.2000 -94.0164 92° East 437 503 39,000  Level Kansas City Center
03:39PM 40.1967 -93.8597 92° East 436 502 39,000  Level Kansas City Center
03:40PM 40.1933 -93.7031 92° East 435 501 39,000  Level Kansas City Center
03:41PM 40.1906 -93.5144 91° East 436 502 39,000  Level Kansas City Center
03:42PM 40.1864 -93.3592 92° East 434 499 39,000  Level Kansas City Center
03:43PM 40.1853 -93.2039 90° East 431 496 39,000  Level Kansas City Center
03:44PM 40.1794 -93.0236 92° East 432 497 39,000  Level Kansas City Center
03:45PM 40.1753 -92.8767 92° East 426 490 39,000  Level Kansas City Center
03:46PM 40.1703 -92.7247 92° East 433 498 39,000  Level Kansas City Center
03:47PM 40.1647 -92.5469 92° East 436 502 39,000  Level Kansas City Center
03:48PM 40.1625 -92.3958 91° East 435 501 39,000  Level Kansas City Center
03:49PM 40.1564 -92.2153 92° East 439 505 39,000  Level Kansas City Center
03:50PM 40.1508 -92.0597 93° East 435 501 39,000  Level Kansas City Center
03:51PM 40.1456 -91.9031 92° East 436 502 39,000  Level Kansas City Center
03:52PM 40.1461 -91.7456 90° East 437 503 39,000  Level Kansas City Center
03:53PM 40.1533 -91.5892 86° East 436 502 39,000  Level Kansas City Center
03:54PM 40.1600 -91.3983 87° East 441 507 39,000  Level Kansas City Center
03:55PM 40.1644 -91.2386 88° East 442 509 39,000  Level Kansas City Center
03:56PM 40.1700 -91.0778 87° East 446 513 39,000  Level Kansas City Center
03:57PM 40.1736 -90.9225 88° East 448 516 39,000  Level Kansas City Center
03:58PM 40.1792 -90.7264 88° East 451 519 39,000  Level Kansas City Center
03:59PM 40.1825 -90.5644 88° East 449 517 39,000  Level Chicago Center
04:00PM 40.1861 -90.3989 88° East 457 526 39,000  Level Chicago Center
04:01PM 40.1900 -90.2336 88° East 458 527 39,000  Level Chicago Center
04:03PM 40.1942 -90.0672 88° East 461 531 39,000  Level Chicago Center
04:04PM 40.1969 -89.9022 89° East 460 529 39,000  Level Chicago Center
04:05PM 40.2000 -89.7047 89° East 459 528 39,000  Level Chicago Center
04:06PM 40.2025 -89.5425 89° East 453 521 39,000  Level Chicago Center
04:07PM 40.2061 -89.3800 88° East 451 519 39,000  Level Chicago Center
04:08PM 40.2075 -89.2175 89° East 449 517 39,000  Level Chicago Center
04:09PM 40.2008 -89.0558 93° East 449 517 39,000  Level Chicago Center
04:10PM 40.1806 -88.8972 99° East 444 511 39,000  Level Chicago Center
04:11PM 40.1569 -88.7036 99° East 449 517 39,000  Level Chicago Center
04:12PM 40.1386 -88.5436 98° East 446 513 39,000  Level Chicago Center
04:13PM 40.1206 -88.3822 98° East 446 513 39,000  Level Kansas City Center
04:14PM 40.1203 -88.2197 90° East 450 518 39,000  Level Kansas City Center
04:15PM 40.1217 -88.0619 89° East 449 517 39,000  Level Chicago Center
04:16PM 40.1261 -87.8647 88° East 452 520 39,000  Level Chicago Center
04:17PM 40.1278 -87.7003 89° East 455 524 39,000  Level Chicago Center
04:18PM 40.1308 -87.5317 89° East 461 531 39,000  Level Chicago Center
04:19PM 40.1319 -87.3650 89° East 461 531 39,000  Level Chicago Center
04:20PM 40.1350 -87.1983 89° East 460 529 39,000  Level Chicago Center
04:21PM 40.1350 -86.9986 90° East 460 529 39,000  Level Chicago Center
04:22PM 40.1367 -86.8308 89° East 462 532 39,000  Level Chicago Center
04:23PM 40.1367 -86.6600 90° East 468 539 39,000  Level Chicago Center
04:24PM 40.1378 -86.4892 89° East 469 540 39,000  Level Chicago Center
04:25PM 40.1394 -86.3189 89° East 466 536 39,000  Level Chicago Center
04:26PM 40.1389 -86.1475 90° East 468 539 39,000  Level Chicago Center
04:27PM 40.1383 -85.9767 90° East 467 537 39,000  Level Chicago Center
04:28PM 40.1378 -85.7717 90° East 469 540 39,000  Level Chicago Center
04:29PM 40.1381 -85.6028 90° East 466 536 39,000  Level Chicago Center
04:30PM 40.1364 -85.4325 91° East 469 540 39,000  Level Chicago Center
04:31PM 40.1381 -85.2628 89° East 469 540 39,000  Level Chicago Center
04:33PM 40.1361 -85.0939 91° East 467 537 39,000  Level Chicago Center
04:34PM 40.1311 -84.8881 92° East 470 541 39,000  Level Indianapolis Center
04:35PM 40.1286 -84.7317 91° East 469 540 39,000  Level Indianapolis Center
04:36PM 40.1272 -84.5581 91° East 474 545 39,000  Level Indianapolis Center
04:37PM 40.1253 -84.3547 91° East 475 547 39,000  Level Indianapolis Center
04:38PM 40.1214 -84.1792 92° East 478 550 39,000  Level Indianapolis Center
04:39PM 40.1181 -84.0019 91° East 482 555 39,000  Level Indianapolis Center
04:40PM 40.1147 -83.8256 91° East 479 551 39,000  Level Indianapolis Center
04:41PM 40.1106 -83.6486 92° East 480 552 39,000  Level Indianapolis Center
04:42PM 40.1072 -83.4722 91° East 477 549 39,000  Level Indianapolis Center
04:43PM 40.1033 -83.2950 92° East 478 550 39,000  Level Indianapolis Center
04:44PM 40.0989 -83.1192 92° East 476 548 39,000  Level Indianapolis Center
04:45PM 40.0944 -82.9444 92° East 476 548 39,000  Level Indianapolis Center
04:46PM 40.0894 -82.7700 92° East 476 548 39,000  Level Indianapolis Center
04:47PM 40.0839 -82.5681 92° East 472 543 39,000  Level Indianapolis Center
04:48PM 40.0772 -82.3950 93° East 471 542 39,000  Level Indianapolis Center
04:49PM 40.0722 -82.2233 92° East 469 540 39,000  Level Indianapolis Center
04:50PM 40.0664 -82.0492 92° East 474 545 39,000  Level Indianapolis Center
04:51PM 40.0600 -81.8761 93° East 475 547 39,000  Level Indianapolis Center
04:52PM 40.0533 -81.7053 93° East 481 554 39,000  Level Indianapolis Center
04:53PM 40.0453 -81.4997 93° East 484 557 39,000  Level Indianapolis Center
04:54PM 40.0386 -81.3244 93° East 484 557 39,000  Level Indianapolis Center
04:55PM 40.0222 -81.1517 97° East 483 556 39,000  Level Indianapolis Center
04:56PM 40.0036 -81.0708 107° East 477 549 39,000 -120 Level Cleveland Center
04:57PM 39.9519 -80.9108 113° Southeast 471 542 38,900 -900 Descending Cleveland Center
04:58PM 39.9003 -80.7536 113° Southeast 471 542 37,200 -2,580 Descending Cleveland Center
04:59PM 39.8525 -80.5939 111° Southeast 471 542 33,800 -2,400 Descending Cleveland Center
05:00PM 39.7981 -80.4344 114° Southeast 477 549 32,400 -1,260 Descending Cleveland Center
05:01PM 39.7458 -80.2725 113° Southeast 483 556 31,300 -1,020 Descending Cleveland Center
05:03PM 39.6203 -79.8939 113° Southeast 478 550 29,100 -960 Descending Washington Center
05:04PM 39.5731 -79.7539 114° Southeast 473 544 28,100 -1,020 Descending Washington Center
05:05PM 39.5242 -79.6003 112° Southeast 467 537 27,100 -600 Descending Washington Center
05:06PM 39.4853 -79.4450 108° East 461 531 27,000 -960 Descending Washington Center
05:07PM 39.4589 -79.2903 102° East 454 522 25,200 -1,980 Descending Washington Center
05:08PM 39.4264 -79.1219 104° East 441 507 23,200 -2,040 Descending Washington Center
05:09PM 39.4014 -78.9811 103° East 422 486 21,200 -2,040 Descending Washington Center
05:10PM 39.3739 -78.8403 104° East 410 472 19,200 -1,980 Descending Washington Center
05:11PM 39.3506 -78.7078 103° East 397 457 17,300 -1,920 Descending Washington Center
05:12PM 39.3267 -78.5806 104° East 378 435 15,400 -1,980 Descending Washington Center
05:13PM 39.3047 -78.4536 103° East 372 428 13,400 -2,040 Descending Washington Center
05:14PM 39.2678 -78.3342 112° Southeast 359 413 11,400 -1,380 Descending Washington Center
05:15PM 39.1858 -78.2694 149° Southeast 329 379 10,700 -780 Descending Washington Center
05:16PM 39.1100 -78.2078 148° Southeast 329 379 9,900 -1,140 Descending Washington Center
05:17PM 39.0364 -78.1492 148° Southeast 324 373 8,400 -1,560 Descending Washington Center
05:18PM 38.9581 -78.1008 154° Southeast 312 359 6,900 -1,440 Descending Washington Center
05:19PM 38.8819 -78.0583 157° South 302 348 5,600 -960 Descending Washington Center
05:20PM 38.8075 -78.0211 159° South 296 341 5,000 -300 Descending Washington Center
05:21PM 38.7397 -77.9792 154° Southeast 284 327 5,000  Level Washington Center
05:24PM 38.6667 -77.7500 112° Southeast 265 305 5,000  Level Potomac TRACON
05:25PM 38.6500 -77.6667 104° East 252 290 5,000 -300 Level Potomac TRACON
05:26PM 38.6667 -77.5833 76° East 242 278 4,500 -600 Descending Potomac TRACON
05:27PM 38.7000 -77.5167 57° Northeast 235 270 3,900 -780 Descending Potomac TRACON
05:28PM 38.7500 -77.4833 27° Northeast 221 254 3,000 -780 Descending Potomac TRACON
05:29PM 38.8000 -77.4667 15° North 187 215 2,400 -600 Descending Potomac TRACON
05:30PM 38.8500 -77.4667 360° North 165 190 1,900 -600 Descending Potomac TRACON
05:31PM 38.9000 -77.4667 360° North 142 163 1,200 -720 Descending Potomac TRACON